Keith, Illinois
Current Conditions -  °F | °C
As of 4:15 PM on Friday 24 Oct 2014 (Local Time) from KFOA Reporting Station
Clear Clear  
Wind Chill: 70°   Ceiling: Unl
Heat Index: 70°   Visibility: 10mi
Dew Point: 51°   Wind: 8mph
Humidity: 52%   Direction: 270°W
Pressure: 30.04"   Gusts: NA
Location:  38.5816°N, 88.4678°W
Report Text: KFOA 242115Z AUTO 27007KT 10SM CLR 21/11 A3004 RMK AO2 T02100107
Loading
Personal Weather Stations






























Interactive Weather Map
Tropical Storm Tracking
New forecast layout! Learn more

10-Day Weather Forecast

Advertisements
Track Severe Weather on mobile